sensor_id;sensor_type;location;lat;lon;timestamp;P1;durP1;ratioP1;P2;durP2;ratioP2
77400;SDS011;66855;45.414;11.082;2023-04-06T00:02:03;5.20;;;2.30;;
77400;SDS011;66855;45.414;11.082;2023-04-06T00:04:29;3.90;;;2.10;;
77400;SDS011;66855;45.414;11.082;2023-04-06T00:06:55;4.30;;;2.50;;
77400;SDS011;66855;45.414;11.082;2023-04-06T00:09:22;3.50;;;2.40;;
77400;SDS011;66855;45.414;11.082;2023-04-06T00:11:48;6.60;;;3.10;;
77400;SDS011;66855;45.414;11.082;2023-04-06T00:14:14;4.70;;;2.50;;
77400;SDS011;66855;45.414;11.082;2023-04-06T00:16:42;4.00;;;2.80;;
77400;SDS011;66855;45.414;11.082;2023-04-06T00:19:09;5.70;;;3.40;;
77400;SDS011;66855;45.414;11.082;2023-04-06T00:21:35;4.40;;;3.10;;
77400;SDS011;66855;45.414;11.082;2023-04-06T00:24:01;4.40;;;2.90;;
77400;SDS011;66855;45.414;11.082;2023-04-06T00:26:29;7.30;;;3.10;;
77400;SDS011;66855;45.414;11.082;2023-04-06T00:28:56;6.70;;;3.10;;
77400;SDS011;66855;45.414;11.082;2023-04-06T00:31:24;4.90;;;3.20;;
77400;SDS011;66855;45.414;11.082;2023-04-06T00:33:50;5.40;;;3.20;;
77400;SDS011;66855;45.414;11.082;2023-04-06T00:36:16;5.10;;;3.40;;
77400;SDS011;66855;45.414;11.082;2023-04-06T00:38:42;5.70;;;2.50;;
77400;SDS011;66855;45.414;11.082;2023-04-06T00:41:08;4.70;;;2.50;;
77400;SDS011;66855;45.414;11.082;2023-04-06T00:43:34;4.50;;;2.60;;
77400;SDS011;66855;45.414;11.082;2023-04-06T00:46:01;3.80;;;2.30;;
77400;SDS011;66855;45.414;11.082;2023-04-06T00:48:27;2.90;;;2.20;;
77400;SDS011;66855;45.414;11.082;2023-04-06T00:50:53;5.20;;;2.40;;
77400;SDS011;66855;45.414;11.082;2023-04-06T00:53:19;4.00;;;2.40;;
77400;SDS011;66855;45.414;11.082;2023-04-06T00:55:45;3.80;;;2.40;;
77400;SDS011;66855;45.414;11.082;2023-04-06T00:58:11;4.20;;;2.70;;
77400;SDS011;66855;45.414;11.082;2023-04-06T01:00:45;3.90;;;2.30;;
77400;SDS011;66855;45.414;11.082;2023-04-06T01:03:15;6.30;;;2.50;;
77400;SDS011;66855;45.414;11.082;2023-04-06T01:05:42;4.30;;;2.10;;
77400;SDS011;66855;45.414;11.082;2023-04-06T01:08:15;5.80;;;2.50;;
77400;SDS011;66855;45.414;11.082;2023-04-06T01:10:41;3.60;;;2.30;;
77400;SDS011;66855;45.414;11.082;2023-04-06T01:13:28;3.00;;;2.10;;
77400;SDS011;66855;45.414;11.082;2023-04-06T01:15:58;3.80;;;2.00;;
77400;SDS011;66855;45.414;11.082;2023-04-06T01:18:30;4.10;;;2.20;;
77400;SDS011;66855;45.414;11.082;2023-04-06T01:21:09;4.30;;;2.30;;
77400;SDS011;66855;45.414;11.082;2023-04-06T01:23:52;2.50;;;1.80;;
77400;SDS011;66855;45.414;11.082;2023-04-06T01:26:23;4.50;;;2.20;;
77400;SDS011;66855;45.414;11.082;2023-04-06T01:28:51;4.00;;;2.30;;
77400;SDS011;66855;45.414;11.082;2023-04-06T01:31:25;3.90;;;2.30;;
77400;SDS011;66855;45.414;11.082;2023-04-06T01:33:52;3.30;;;2.30;;
77400;SDS011;66855;45.414;11.082;2023-04-06T01:36:21;4.40;;;2.70;;
77400;SDS011;66855;45.414;11.082;2023-04-06T01:38:53;4.70;;;2.80;;
77400;SDS011;66855;45.414;11.082;2023-04-06T01:41:25;4.60;;;2.70;;
77400;SDS011;66855;45.414;11.082;2023-04-06T01:43:52;4.90;;;2.80;;
77400;SDS011;66855;45.414;11.082;2023-04-06T01:46:23;4.80;;;3.20;;
77400;SDS011;66855;45.414;11.082;2023-04-06T01:48:49;6.70;;;2.90;;
77400;SDS011;66855;45.414;11.082;2023-04-06T01:51:48;5.70;;;3.60;;
77400;SDS011;66855;45.414;11.082;2023-04-06T01:54:15;7.00;;;3.00;;
77400;SDS011;66855;45.414;11.082;2023-04-06T01:56:59;5.20;;;3.10;;
77400;SDS011;66855;45.414;11.082;2023-04-06T01:59:52;5.80;;;3.70;;
77400;SDS011;66855;45.414;11.082;2023-04-06T02:02:26;4.60;;;3.30;;
77400;SDS011;66855;45.414;11.082;2023-04-06T02:04:59;7.40;;;3.70;;
77400;SDS011;66855;45.414;11.082;2023-04-06T02:07:25;5.10;;;3.40;;
77400;SDS011;66855;45.414;11.082;2023-04-06T02:09:55;5.20;;;3.20;;
77400;SDS011;66855;45.414;11.082;2023-04-06T02:12:26;5.60;;;3.70;;
77400;SDS011;66855;45.414;11.082;2023-04-06T02:14:53;5.30;;;3.50;;
77400;SDS011;66855;45.414;11.082;2023-04-06T02:17:19;6.40;;;4.00;;
77400;SDS011;66855;45.414;11.082;2023-04-06T02:19:46;7.70;;;4.40;;
77400;SDS011;66855;45.414;11.082;2023-04-06T02:22:12;6.10;;;3.50;;
77400;SDS011;66855;45.414;11.082;2023-04-06T02:24:38;5.30;;;3.70;;
77400;SDS011;66855;45.414;11.082;2023-04-06T02:27:04;6.00;;;3.30;;
77400;SDS011;66855;45.414;11.082;2023-04-06T02:29:31;6.60;;;3.40;;
77400;SDS011;66855;45.414;11.082;2023-04-06T02:31:57;5.90;;;3.10;;
77400;SDS011;66855;45.414;11.082;2023-04-06T02:34:24;5.10;;;2.70;;
77400;SDS011;66855;45.414;11.082;2023-04-06T02:36:50;7.50;;;2.90;;
77400;SDS011;66855;45.414;11.082;2023-04-06T02:39:16;4.90;;;2.80;;
77400;SDS011;66855;45.414;11.082;2023-04-06T02:41:43;4.40;;;2.60;;
77400;SDS011;66855;45.414;11.082;2023-04-06T02:44:09;4.30;;;2.50;;
77400;SDS011;66855;45.414;11.082;2023-04-06T02:49:05;4.90;;;2.30;;
77400;SDS011;66855;45.414;11.082;2023-04-06T02:51:33;4.60;;;2.50;;
77400;SDS011;66855;45.414;11.082;2023-04-06T02:54:08;4.60;;;2.50;;
77400;SDS011;66855;45.414;11.082;2023-04-06T02:56:35;3.50;;;2.60;;
77400;SDS011;66855;45.414;11.082;2023-04-06T02:59:01;5.50;;;2.60;;
77400;SDS011;66855;45.414;11.082;2023-04-06T03:01:29;4.60;;;2.40;;
77400;SDS011;66855;45.414;11.082;2023-04-06T03:03:57;4.10;;;2.50;;
77400;SDS011;66855;45.414;11.082;2023-04-06T03:06:25;4.10;;;3.10;;
77400;SDS011;66855;45.414;11.082;2023-04-06T03:08:55;3.80;;;2.50;;
77400;SDS011;66855;45.414;11.082;2023-04-06T03:11:21;4.70;;;3.50;;
77400;SDS011;66855;45.414;11.082;2023-04-06T03:13:48;4.20;;;2.70;;
77400;SDS011;66855;45.414;11.082;2023-04-06T03:16:15;4.90;;;2.80;;
77400;SDS011;66855;45.414;11.082;2023-04-06T03:18:41;4.50;;;2.70;;
77400;SDS011;66855;45.414;11.082;2023-04-06T03:21:11;7.30;;;2.80;;
77400;SDS011;66855;45.414;11.082;2023-04-06T03:23:45;5.30;;;2.90;;
77400;SDS011;66855;45.414;11.082;2023-04-06T03:26:11;4.90;;;3.20;;
77400;SDS011;66855;45.414;11.082;2023-04-06T03:28:37;5.50;;;3.10;;
77400;SDS011;66855;45.414;11.082;2023-04-06T03:31:04;7.60;;;2.80;;
77400;SDS011;66855;45.414;11.082;2023-04-06T03:33:49;3.70;;;2.70;;
77400;SDS011;66855;45.414;11.082;2023-04-06T03:36:21;5.80;;;2.80;;
77400;SDS011;66855;45.414;11.082;2023-04-06T03:38:48;4.90;;;3.10;;
77400;SDS011;66855;45.414;11.082;2023-04-06T03:41:14;5.80;;;3.00;;
77400;SDS011;66855;45.414;11.082;2023-04-06T03:43:44;7.90;;;3.60;;
77400;SDS011;66855;45.414;11.082;2023-04-06T03:46:10;6.70;;;3.10;;
77400;SDS011;66855;45.414;11.082;2023-04-06T03:48:37;6.80;;;2.90;;
77400;SDS011;66855;45.414;11.082;2023-04-06T03:51:04;6.70;;;3.30;;
77400;SDS011;66855;45.414;11.082;2023-04-06T03:53:31;6.80;;;3.60;;
77400;SDS011;66855;45.414;11.082;2023-04-06T03:55:57;6.40;;;3.20;;
77400;SDS011;66855;45.414;11.082;2023-04-06T03:58:23;6.30;;;3.10;;
77400;SDS011;66855;45.414;11.082;2023-04-06T04:00:51;7.60;;;3.40;;
77400;SDS011;66855;45.414;11.082;2023-04-06T04:03:17;7.00;;;3.40;;
77400;SDS011;66855;45.414;11.082;2023-04-06T04:05:43;7.40;;;3.40;;
77400;SDS011;66855;45.414;11.082;2023-04-06T04:08:10;4.80;;;2.90;;
77400;SDS011;66855;45.414;11.082;2023-04-06T04:10:36;4.60;;;3.20;;
77400;SDS011;66855;45.414;11.082;2023-04-06T04:13:02;9.50;;;3.50;;
77400;SDS011;66855;45.414;11.082;2023-04-06T04:15:29;6.40;;;3.50;;
77400;SDS011;66855;45.414;11.082;2023-04-06T04:17:55;6.90;;;4.20;;
77400;SDS011;66855;45.414;11.082;2023-04-06T04:20:21;8.30;;;4.10;;
77400;SDS011;66855;45.414;11.082;2023-04-06T04:22:48;6.20;;;3.60;;
77400;SDS011;66855;45.414;11.082;2023-04-06T04:25:14;5.70;;;3.90;;
77400;SDS011;66855;45.414;11.082;2023-04-06T04:27:44;6.80;;;4.90;;
77400;SDS011;66855;45.414;11.082;2023-04-06T04:30:11;8.50;;;4.90;;
77400;SDS011;66855;45.414;11.082;2023-04-06T04:32:37;9.00;;;6.00;;
77400;SDS011;66855;45.414;11.082;2023-04-06T04:35:04;10.40;;;5.90;;
77400;SDS011;66855;45.414;11.082;2023-04-06T04:37:34;11.20;;;6.40;;
77400;SDS011;66855;45.414;11.082;2023-04-06T04:40:01;9.50;;;5.70;;
77400;SDS011;66855;45.414;11.082;2023-04-06T04:42:30;7.80;;;5.50;;
77400;SDS011;66855;45.414;11.082;2023-04-06T04:44:57;8.80;;;5.00;;
77400;SDS011;66855;45.414;11.082;2023-04-06T04:47:31;8.40;;;5.20;;
77400;SDS011;66855;45.414;11.082;2023-04-06T04:49:57;8.50;;;5.00;;
77400;SDS011;66855;45.414;11.082;2023-04-06T04:52:24;9.20;;;5.00;;
77400;SDS011;66855;45.414;11.082;2023-04-06T04:54:56;7.10;;;3.50;;
77400;SDS011;66855;45.414;11.082;2023-04-06T04:57:25;7.40;;;3.90;;
77400;SDS011;66855;45.414;11.082;2023-04-06T04:59:52;6.40;;;3.90;;
77400;SDS011;66855;45.414;11.082;2023-04-06T05:02:18;6.90;;;3.50;;
77400;SDS011;66855;45.414;11.082;2023-04-06T05:05:02;5.60;;;3.00;;
77400;SDS011;66855;45.414;11.082;2023-04-06T05:07:29;6.90;;;3.10;;
77400;SDS011;66855;45.414;11.082;2023-04-06T05:09:55;8.60;;;4.40;;
77400;SDS011;66855;45.414;11.082;2023-04-06T05:12:24;10.50;;;3.50;;
77400;SDS011;66855;45.414;11.082;2023-04-06T05:15:05;3.60;;;2.30;;
77400;SDS011;66855;45.414;11.082;2023-04-06T05:17:32;4.20;;;2.20;;
77400;SDS011;66855;45.414;11.082;2023-04-06T05:19:58;5.60;;;2.40;;
77400;SDS011;66855;45.414;11.082;2023-04-06T05:22:25;5.40;;;2.60;;
77400;SDS011;66855;45.414;11.082;2023-04-06T05:27:48;7.10;;;2.50;;
77400;SDS011;66855;45.414;11.082;2023-04-06T05:30:25;4.60;;;2.40;;
77400;SDS011;66855;45.414;11.082;2023-04-06T05:32:51;4.00;;;1.90;;
77400;SDS011;66855;45.414;11.082;2023-04-06T05:35:19;8.40;;;2.80;;
77400;SDS011;66855;45.414;11.082;2023-04-06T05:37:49;10.80;;;2.70;;
77400;SDS011;66855;45.414;11.082;2023-04-06T05:40:16;5.90;;;2.90;;
77400;SDS011;66855;45.414;11.082;2023-04-06T05:42:43;9.10;;;3.50;;
77400;SDS011;66855;45.414;11.082;2023-04-06T05:45:10;12.00;;;3.30;;
77400;SDS011;66855;45.414;11.082;2023-04-06T05:47:45;10.40;;;3.40;;
77400;SDS011;66855;45.414;11.082;2023-04-06T05:50:19;12.90;;;3.80;;
77400;SDS011;66855;45.414;11.082;2023-04-06T05:52:45;8.00;;;3.60;;
77400;SDS011;66855;45.414;11.082;2023-04-06T05:55:13;9.60;;;4.20;;
77400;SDS011;66855;45.414;11.082;2023-04-06T05:57:41;11.60;;;3.50;;
77400;SDS011;66855;45.414;11.082;2023-04-06T06:00:08;11.00;;;4.00;;
77400;SDS011;66855;45.414;11.082;2023-04-06T06:02:46;6.80;;;3.10;;
77400;SDS011;66855;45.414;11.082;2023-04-06T06:05:16;10.40;;;3.20;;
77400;SDS011;66855;45.414;11.082;2023-04-06T06:07:42;8.80;;;3.50;;
77400;SDS011;66855;45.414;11.082;2023-04-06T06:10:09;9.40;;;3.80;;
77400;SDS011;66855;45.414;11.082;2023-04-06T06:12:36;11.00;;;4.10;;
77400;SDS011;66855;45.414;11.082;2023-04-06T06:15:02;11.70;;;4.20;;
77400;SDS011;66855;45.414;11.082;2023-04-06T06:17:31;11.40;;;4.50;;
77400;SDS011;66855;45.414;11.082;2023-04-06T06:19:57;8.90;;;5.10;;
77400;SDS011;66855;45.414;11.082;2023-04-06T06:22:25;9.40;;;4.50;;
77400;SDS011;66855;45.414;11.082;2023-04-06T06:24:52;12.40;;;4.50;;
77400;SDS011;66855;45.414;11.082;2023-04-06T06:27:18;9.40;;;4.10;;
77400;SDS011;66855;45.414;11.082;2023-04-06T06:29:46;9.60;;;4.10;;
77400;SDS011;66855;45.414;11.082;2023-04-06T06:32:13;8.30;;;4.50;;
77400;SDS011;66855;45.414;11.082;2023-04-06T06:34:40;12.60;;;4.70;;
77400;SDS011;66855;45.414;11.082;2023-04-06T06:37:07;13.00;;;4.60;;
77400;SDS011;66855;45.414;11.082;2023-04-06T06:39:33;12.10;;;4.40;;
77400;SDS011;66855;45.414;11.082;2023-04-06T06:42:00;10.00;;;4.70;;
77400;SDS011;66855;45.414;11.082;2023-04-06T06:44:43;11.60;;;4.70;;
77400;SDS011;66855;45.414;11.082;2023-04-06T06:47:10;13.50;;;4.70;;
77400;SDS011;66855;45.414;11.082;2023-04-06T06:49:36;10.30;;;4.30;;
77400;SDS011;66855;45.414;11.082;2023-04-06T06:52:02;9.10;;;4.00;;
77400;SDS011;66855;45.414;11.082;2023-04-06T06:54:28;9.60;;;4.70;;
77400;SDS011;66855;45.414;11.082;2023-04-06T06:56:55;9.00;;;4.10;;
77400;SDS011;66855;45.414;11.082;2023-04-06T06:59:21;6.20;;;3.70;;
77400;SDS011;66855;45.414;11.082;2023-04-06T07:01:49;7.90;;;4.20;;
77400;SDS011;66855;45.414;11.082;2023-04-06T07:04:16;6.30;;;4.20;;
77400;SDS011;66855;45.414;11.082;2023-04-06T07:06:50;10.20;;;4.90;;
77400;SDS011;66855;45.414;11.082;2023-04-06T07:09:18;10.70;;;5.70;;
77400;SDS011;66855;45.414;11.082;2023-04-06T07:11:46;13.70;;;6.10;;
77400;SDS011;66855;45.414;11.082;2023-04-06T07:14:12;9.90;;;5.40;;
77400;SDS011;66855;45.414;11.082;2023-04-06T07:16:41;10.60;;;5.60;;
77400;SDS011;66855;45.414;11.082;2023-04-06T07:19:08;6.80;;;4.50;;
77400;SDS011;66855;45.414;11.082;2023-04-06T07:21:35;16.00;;;8.30;;
77400;SDS011;66855;45.414;11.082;2023-04-06T07:24:01;16.20;;;7.80;;
77400;SDS011;66855;45.414;11.082;2023-04-06T07:26:27;35.00;;;22.70;;
77400;SDS011;66855;45.414;11.082;2023-04-06T07:28:53;12.90;;;10.10;;
77400;SDS011;66855;45.414;11.082;2023-04-06T07:31:21;8.00;;;4.20;;
77400;SDS011;66855;45.414;11.082;2023-04-06T07:33:48;6.90;;;5.00;;
77400;SDS011;66855;45.414;11.082;2023-04-06T07:36:14;6.60;;;3.80;;
77400;SDS011;66855;45.414;11.082;2023-04-06T07:38:42;8.20;;;5.60;;
77400;SDS011;66855;45.414;11.082;2023-04-06T07:41:08;7.50;;;5.50;;
77400;SDS011;66855;45.414;11.082;2023-04-06T07:43:34;6.60;;;3.90;;
77400;SDS011;66855;45.414;11.082;2023-04-06T07:46:00;7.40;;;4.40;;
77400;SDS011;66855;45.414;11.082;2023-04-06T07:48:28;9.30;;;4.70;;
77400;SDS011;66855;45.414;11.082;2023-04-06T07:51:00;7.60;;;4.90;;
77400;SDS011;66855;45.414;11.082;2023-04-06T07:53:28;7.50;;;5.30;;
77400;SDS011;66855;45.414;11.082;2023-04-06T07:55:55;8.30;;;4.50;;
77400;SDS011;66855;45.414;11.082;2023-04-06T07:58:21;6.70;;;4.60;;
77400;SDS011;66855;45.414;11.082;2023-04-06T08:00:49;13.50;;;8.50;;
77400;SDS011;66855;45.414;11.082;2023-04-06T08:03:15;7.20;;;5.70;;
77400;SDS011;66855;45.414;11.082;2023-04-06T08:05:42;7.80;;;4.90;;
77400;SDS011;66855;45.414;11.082;2023-04-06T08:08:09;11.60;;;5.90;;
77400;SDS011;66855;45.414;11.082;2023-04-06T08:10:35;8.10;;;6.30;;
77400;SDS011;66855;45.414;11.082;2023-04-06T08:13:03;8.90;;;5.20;;
77400;SDS011;66855;45.414;11.082;2023-04-06T08:15:30;9.70;;;6.10;;
77400;SDS011;66855;45.414;11.082;2023-04-06T08:17:57;6.40;;;4.80;;
77400;SDS011;66855;45.414;11.082;2023-04-06T08:20:43;9.10;;;4.90;;
77400;SDS011;66855;45.414;11.082;2023-04-06T08:23:11;7.40;;;4.90;;
77400;SDS011;66855;45.414;11.082;2023-04-06T08:25:37;8.20;;;5.30;;
77400;SDS011;66855;45.414;11.082;2023-04-06T08:28:11;8.00;;;5.50;;
77400;SDS011;66855;45.414;11.082;2023-04-06T08:30:40;6.90;;;5.10;;
77400;SDS011;66855;45.414;11.082;2023-04-06T08:33:07;7.10;;;4.50;;
77400;SDS011;66855;45.414;11.082;2023-04-06T08:35:34;7.10;;;5.00;;
77400;SDS011;66855;45.414;11.082;2023-04-06T08:38:02;7.70;;;5.00;;
77400;SDS011;66855;45.414;11.082;2023-04-06T08:40:29;7.50;;;5.10;;
77400;SDS011;66855;45.414;11.082;2023-04-06T08:42:56;7.90;;;4.70;;
77400;SDS011;66855;45.414;11.082;2023-04-06T08:48:25;7.10;;;4.80;;
77400;SDS011;66855;45.414;11.082;2023-04-06T08:50:51;8.30;;;5.00;;
77400;SDS011;66855;45.414;11.082;2023-04-06T08:53:17;8.50;;;5.40;;
77400;SDS011;66855;45.414;11.082;2023-04-06T08:55:44;7.70;;;4.80;;
77400;SDS011;66855;45.414;11.082;2023-04-06T08:58:10;8.00;;;4.80;;
77400;SDS011;66855;45.414;11.082;2023-04-06T09:00:37;8.10;;;4.90;;
77400;SDS011;66855;45.414;11.082;2023-04-06T09:03:04;9.10;;;4.70;;
77400;SDS011;66855;45.414;11.082;2023-04-06T09:05:33;10.20;;;5.50;;
77400;SDS011;66855;45.414;11.082;2023-04-06T09:07:59;8.20;;;5.20;;
77400;SDS011;66855;45.414;11.082;2023-04-06T09:10:25;8.90;;;5.30;;
77400;SDS011;66855;45.414;11.082;2023-04-06T09:13:02;8.50;;;6.00;;
77400;SDS011;66855;45.414;11.082;2023-04-06T09:15:32;7.20;;;5.70;;
77400;SDS011;66855;45.414;11.082;2023-04-06T09:17:58;7.20;;;4.70;;
77400;SDS011;66855;45.414;11.082;2023-04-06T09:20:26;5.90;;;4.90;;
77400;SDS011;66855;45.414;11.082;2023-04-06T09:22:54;8.40;;;5.00;;
77400;SDS011;66855;45.414;11.082;2023-04-06T09:25:21;6.90;;;4.40;;
77400;SDS011;66855;45.414;11.082;2023-04-06T09:27:57;7.40;;;4.90;;
77400;SDS011;66855;45.414;11.082;2023-04-06T09:30:24;8.10;;;4.40;;
77400;SDS011;66855;45.414;11.082;2023-04-06T09:32:52;8.60;;;4.70;;
77400;SDS011;66855;45.414;11.082;2023-04-06T09:35:20;9.10;;;4.90;;
77400;SDS011;66855;45.414;11.082;2023-04-06T09:37:47;6.60;;;4.40;;
77400;SDS011;66855;45.414;11.082;2023-04-06T09:40:14;6.80;;;4.90;;
77400;SDS011;66855;45.414;11.082;2023-04-06T09:42:41;6.40;;;4.70;;
77400;SDS011;66855;45.414;11.082;2023-04-06T09:45:08;8.00;;;4.80;;
77400;SDS011;66855;45.414;11.082;2023-04-06T09:47:36;6.50;;;4.30;;
77400;SDS011;66855;45.414;11.082;2023-04-06T09:50:02;5.70;;;4.30;;
77400;SDS011;66855;45.414;11.082;2023-04-06T09:52:32;7.50;;;4.30;;
77400;SDS011;66855;45.414;11.082;2023-04-06T09:55:01;7.10;;;4.10;;
77400;SDS011;66855;45.414;11.082;2023-04-06T09:57:31;11.50;;;5.30;;
77400;SDS011;66855;45.414;11.082;2023-04-06T10:00:03;8.00;;;3.90;;
77400;SDS011;66855;45.414;11.082;2023-04-06T10:05:09;8.30;;;4.70;;
77400;SDS011;66855;45.414;11.082;2023-04-06T10:07:41;6.00;;;4.00;;
77400;SDS011;66855;45.414;11.082;2023-04-06T10:10:24;14.60;;;5.50;;
77400;SDS011;66855;45.414;11.082;2023-04-06T10:12:51;5.90;;;4.50;;
77400;SDS011;66855;45.414;11.082;2023-04-06T10:15:17;6.00;;;4.30;;
77400;SDS011;66855;45.414;11.082;2023-04-06T10:17:46;7.80;;;5.20;;
77400;SDS011;66855;45.414;11.082;2023-04-06T10:20:14;7.70;;;4.60;;
77400;SDS011;66855;45.414;11.082;2023-04-06T10:22:49;6.10;;;4.00;;
77400;SDS011;66855;45.414;11.082;2023-04-06T10:25:29;5.70;;;4.40;;
77400;SDS011;66855;45.414;11.082;2023-04-06T10:28:06;5.70;;;4.00;;
77400;SDS011;66855;45.414;11.082;2023-04-06T10:30:35;6.90;;;4.20;;
77400;SDS011;66855;45.414;11.082;2023-04-06T10:33:18;7.40;;;4.30;;
77400;SDS011;66855;45.414;11.082;2023-04-06T10:35:46;7.40;;;5.50;;
77400;SDS011;66855;45.414;11.082;2023-04-06T10:38:12;6.60;;;5.00;;
77400;SDS011;66855;45.414;11.082;2023-04-06T10:40:40;9.50;;;5.40;;
77400;SDS011;66855;45.414;11.082;2023-04-06T10:43:09;7.30;;;4.90;;
77400;SDS011;66855;45.414;11.082;2023-04-06T10:45:38;6.90;;;4.50;;
77400;SDS011;66855;45.414;11.082;2023-04-06T10:48:13;8.10;;;4.50;;
77400;SDS011;66855;45.414;11.082;2023-04-06T10:50:44;7.80;;;4.80;;
77400;SDS011;66855;45.414;11.082;2023-04-06T10:53:10;6.80;;;5.60;;
77400;SDS011;66855;45.414;11.082;2023-04-06T10:55:38;8.40;;;5.30;;
77400;SDS011;66855;45.414;11.082;2023-04-06T10:58:07;9.00;;;5.10;;
77400;SDS011;66855;45.414;11.082;2023-04-06T11:00:34;6.10;;;4.70;;
77400;SDS011;66855;45.414;11.082;2023-04-06T11:03:16;6.40;;;5.10;;
77400;SDS011;66855;45.414;11.082;2023-04-06T11:05:45;8.60;;;5.40;;
77400;SDS011;66855;45.414;11.082;2023-04-06T11:08:24;6.70;;;5.00;;
77400;SDS011;66855;45.414;11.082;2023-04-06T11:11:08;8.00;;;5.80;;
77400;SDS011;66855;45.414;11.082;2023-04-06T11:16:14;7.80;;;5.60;;
77400;SDS011;66855;45.414;11.082;2023-04-06T11:18:53;7.50;;;6.00;;
77400;SDS011;66855;45.414;11.082;2023-04-06T11:21:39;8.50;;;5.70;;
77400;SDS011;66855;45.414;11.082;2023-04-06T11:29:10;8.90;;;5.80;;
77400;SDS011;66855;45.414;11.082;2023-04-06T11:31:38;10.30;;;6.80;;
77400;SDS011;66855;45.414;11.082;2023-04-06T11:34:23;7.80;;;6.20;;
77400;SDS011;66855;45.414;11.082;2023-04-06T11:37:02;8.70;;;6.70;;
77400;SDS011;66855;45.414;11.082;2023-04-06T11:39:56;8.10;;;6.00;;
77400;SDS011;66855;45.414;11.082;2023-04-06T11:42:23;9.50;;;6.70;;
77400;SDS011;66855;45.414;11.082;2023-04-06T11:44:53;9.60;;;6.50;;
77400;SDS011;66855;45.414;11.082;2023-04-06T11:50:12;9.00;;;6.00;;
77400;SDS011;66855;45.414;11.082;2023-04-06T11:52:39;9.20;;;6.00;;
77400;SDS011;66855;45.414;11.082;2023-04-06T11:55:16;8.00;;;6.40;;
77400;SDS011;66855;45.414;11.082;2023-04-06T11:57:44;7.70;;;5.90;;
77400;SDS011;66855;45.414;11.082;2023-04-06T12:00:11;7.70;;;5.60;;
77400;SDS011;66855;45.414;11.082;2023-04-06T12:02:38;9.30;;;5.90;;
77400;SDS011;66855;45.414;11.082;2023-04-06T12:05:08;9.50;;;6.50;;
77400;SDS011;66855;45.414;11.082;2023-04-06T12:07:36;8.30;;;6.30;;
77400;SDS011;66855;45.414;11.082;2023-04-06T12:10:02;8.40;;;6.10;;
77400;SDS011;66855;45.414;11.082;2023-04-06T12:12:31;8.30;;;6.70;;
77400;SDS011;66855;45.414;11.082;2023-04-06T12:14:57;9.30;;;6.40;;
77400;SDS011;66855;45.414;11.082;2023-04-06T12:17:24;9.10;;;6.10;;
77400;SDS011;66855;45.414;11.082;2023-04-06T12:19:50;9.70;;;6.60;;
77400;SDS011;66855;45.414;11.082;2023-04-06T12:22:17;7.40;;;6.00;;
77400;SDS011;66855;45.414;11.082;2023-04-06T12:24:43;9.30;;;6.60;;
77400;SDS011;66855;45.414;11.082;2023-04-06T12:27:10;9.00;;;6.70;;
77400;SDS011;66855;45.414;11.082;2023-04-06T12:29:37;7.70;;;5.80;;
77400;SDS011;66855;45.414;11.082;2023-04-06T12:32:03;10.70;;;6.90;;
77400;SDS011;66855;45.414;11.082;2023-04-06T12:34:31;9.80;;;6.40;;
77400;SDS011;66855;45.414;11.082;2023-04-06T12:36:57;8.40;;;6.80;;
77400;SDS011;66855;45.414;11.082;2023-04-06T12:39:23;8.50;;;6.40;;
77400;SDS011;66855;45.414;11.082;2023-04-06T12:41:51;11.00;;;7.50;;
77400;SDS011;66855;45.414;11.082;2023-04-06T12:44:17;9.60;;;6.60;;
77400;SDS011;66855;45.414;11.082;2023-04-06T12:46:43;9.70;;;6.80;;
77400;SDS011;66855;45.414;11.082;2023-04-06T12:49:09;9.90;;;7.20;;
77400;SDS011;66855;45.414;11.082;2023-04-06T12:51:36;10.10;;;7.40;;
77400;SDS011;66855;45.414;11.082;2023-04-06T12:54:02;9.30;;;7.20;;
77400;SDS011;66855;45.414;11.082;2023-04-06T12:56:29;9.10;;;7.10;;
77400;SDS011;66855;45.414;11.082;2023-04-06T12:58:56;9.90;;;7.00;;
77400;SDS011;66855;45.414;11.082;2023-04-06T13:01:23;9.80;;;7.70;;
77400;SDS011;66855;45.414;11.082;2023-04-06T13:03:49;10.70;;;7.00;;
77400;SDS011;66855;45.414;11.082;2023-04-06T13:06:15;8.20;;;6.80;;
77400;SDS011;66855;45.414;11.082;2023-04-06T13:08:42;10.40;;;7.40;;
77400;SDS011;66855;45.414;11.082;2023-04-06T13:11:09;8.70;;;7.20;;
77400;SDS011;66855;45.414;11.082;2023-04-06T13:13:35;11.80;;;8.10;;
77400;SDS011;66855;45.414;11.082;2023-04-06T13:16:03;9.80;;;7.20;;
77400;SDS011;66855;45.414;11.082;2023-04-06T13:18:31;11.60;;;7.60;;
77400;SDS011;66855;45.414;11.082;2023-04-06T13:20:58;10.40;;;8.10;;
77400;SDS011;66855;45.414;11.082;2023-04-06T13:23:26;8.50;;;7.40;;
77400;SDS011;66855;45.414;11.082;2023-04-06T13:26:13;11.50;;;7.60;;
77400;SDS011;66855;45.414;11.082;2023-04-06T13:28:42;9.70;;;7.10;;
77400;SDS011;66855;45.414;11.082;2023-04-06T13:31:08;9.90;;;7.00;;
77400;SDS011;66855;45.414;11.082;2023-04-06T13:33:35;10.60;;;6.90;;
77400;SDS011;66855;45.414;11.082;2023-04-06T13:36:02;9.00;;;6.60;;
77400;SDS011;66855;45.414;11.082;2023-04-06T13:38:29;9.50;;;6.30;;
77400;SDS011;66855;45.414;11.082;2023-04-06T13:40:55;8.30;;;6.70;;
77400;SDS011;66855;45.414;11.082;2023-04-06T13:43:21;12.00;;;6.70;;
77400;SDS011;66855;45.414;11.082;2023-04-06T13:45:49;11.90;;;6.90;;
77400;SDS011;66855;45.414;11.082;2023-04-06T13:48:16;8.90;;;7.20;;
77400;SDS011;66855;45.414;11.082;2023-04-06T13:50:43;10.20;;;7.40;;
77400;SDS011;66855;45.414;11.082;2023-04-06T13:53:09;12.80;;;8.00;;
77400;SDS011;66855;45.414;11.082;2023-04-06T13:55:36;10.20;;;6.90;;
77400;SDS011;66855;45.414;11.082;2023-04-06T13:58:03;8.90;;;7.20;;
77400;SDS011;66855;45.414;11.082;2023-04-06T14:00:29;9.70;;;7.50;;
77400;SDS011;66855;45.414;11.082;2023-04-06T14:02:55;11.30;;;6.60;;
77400;SDS011;66855;45.414;11.082;2023-04-06T14:05:22;10.60;;;6.70;;
77400;SDS011;66855;45.414;11.082;2023-04-06T14:07:49;9.20;;;6.80;;
77400;SDS011;66855;45.414;11.082;2023-04-06T14:10:17;10.40;;;7.30;;
77400;SDS011;66855;45.414;11.082;2023-04-06T14:12:43;10.10;;;7.50;;
77400;SDS011;66855;45.414;11.082;2023-04-06T14:15:11;9.60;;;6.60;;
77400;SDS011;66855;45.414;11.082;2023-04-06T14:17:38;9.30;;;7.20;;
77400;SDS011;66855;45.414;11.082;2023-04-06T14:20:05;9.00;;;7.00;;
77400;SDS011;66855;45.414;11.082;2023-04-06T14:22:31;8.90;;;6.90;;
77400;SDS011;66855;45.414;11.082;2023-04-06T14:24:57;9.10;;;6.60;;
77400;SDS011;66855;45.414;11.082;2023-04-06T14:27:24;10.40;;;7.20;;
77400;SDS011;66855;45.414;11.082;2023-04-06T14:29:50;12.10;;;7.40;;
77400;SDS011;66855;45.414;11.082;2023-04-06T14:32:16;9.80;;;6.80;;
77400;SDS011;66855;45.414;11.082;2023-04-06T14:34:43;8.00;;;6.20;;
77400;SDS011;66855;45.414;11.082;2023-04-06T14:37:09;9.50;;;6.00;;
77400;SDS011;66855;45.414;11.082;2023-04-06T14:39:35;9.80;;;6.80;;
77400;SDS011;66855;45.414;11.082;2023-04-06T14:42:01;10.40;;;6.40;;
77400;SDS011;66855;45.414;11.082;2023-04-06T14:44:28;9.60;;;7.00;;
77400;SDS011;66855;45.414;11.082;2023-04-06T14:46:54;11.10;;;7.00;;
77400;SDS011;66855;45.414;11.082;2023-04-06T14:49:20;12.30;;;7.00;;
77400;SDS011;66855;45.414;11.082;2023-04-06T14:51:46;14.60;;;8.10;;
77400;SDS011;66855;45.414;11.082;2023-04-06T14:54:13;8.80;;;6.80;;
77400;SDS011;66855;45.414;11.082;2023-04-06T14:56:39;9.90;;;7.00;;
77400;SDS011;66855;45.414;11.082;2023-04-06T14:59:05;8.80;;;7.60;;
77400;SDS011;66855;45.414;11.082;2023-04-06T15:01:34;17.10;;;12.20;;
77400;SDS011;66855;45.414;11.082;2023-04-06T15:04:03;13.00;;;8.80;;